sensor_id;sensor_type;location;lat;lon;timestamp;pressure;altitude;pressure_sealevel;temperature;humidity
53960;BME280;39866;48.638;-2.020;2023-03-22T00:02:19;100772.91;;;16.92;57.70
53960;BME280;39866;48.638;-2.020;2023-03-22T00:04:45;100762.97;;;16.94;57.53
53960;BME280;39866;48.638;-2.020;2023-03-22T00:07:10;100765.72;;;16.93;57.58
53960;BME280;39866;48.638;-2.020;2023-03-22T00:09:35;100747.91;;;16.74;57.87
53960;BME280;39866;48.638;-2.020;2023-03-22T00:12:01;100753.91;;;16.79;57.65
53960;BME280;39866;48.638;-2.020;2023-03-22T00:14:26;100738.38;;;16.84;57.63
53960;BME280;39866;48.638;-2.020;2023-03-22T00:16:52;100746.72;;;16.63;58.09
53960;BME280;39866;48.638;-2.020;2023-03-22T00:19:17;100731.28;;;16.66;58.03
53960;BME280;39866;48.638;-2.020;2023-03-22T00:21:42;100741.09;;;16.67;57.83
53960;BME280;39866;48.638;-2.020;2023-03-22T00:24:08;100729.88;;;16.76;57.86
53960;BME280;39866;48.638;-2.020;2023-03-22T00:26:33;100718.41;;;16.73;57.75
53960;BME280;39866;48.638;-2.020;2023-03-22T00:28:59;100710.50;;;16.70;57.61
53960;BME280;39866;48.638;-2.020;2023-03-22T00:31:24;100721.22;;;16.87;57.41
53960;BME280;39866;48.638;-2.020;2023-03-22T00:33:50;100715.75;;;16.89;57.55
53960;BME280;39866;48.638;-2.020;2023-03-22T00:36:15;100719.91;;;16.78;57.92
53960;BME280;39866;48.638;-2.020;2023-03-22T00:38:40;100716.44;;;16.92;57.61
53960;BME280;39866;48.638;-2.020;2023-03-22T00:41:14;100703.06;;;16.75;58.05
53960;BME280;39866;48.638;-2.020;2023-03-22T00:43:40;100704.63;;;16.79;57.65
53960;BME280;39866;48.638;-2.020;2023-03-22T00:46:06;100681.34;;;16.62;57.89
53960;BME280;39866;48.638;-2.020;2023-03-22T00:48:32;100678.47;;;16.65;58.06
53960;BME280;39866;48.638;-2.020;2023-03-22T00:50:58;100680.22;;;16.66;57.74
53960;BME280;39866;48.638;-2.020;2023-03-22T00:53:23;100684.38;;;16.72;57.84
53960;BME280;39866;48.638;-2.020;2023-03-22T00:55:50;100679.09;;;16.70;57.90
53960;BME280;39866;48.638;-2.020;2023-03-22T00:58:15;100666.78;;;16.66;57.79
53960;BME280;39866;48.638;-2.020;2023-03-22T01:00:41;100668.63;;;16.48;58.03
53960;BME280;39866;48.638;-2.020;2023-03-22T01:03:06;100639.00;;;16.50;58.12
53960;BME280;39866;48.638;-2.020;2023-03-22T01:05:33;100651.34;;;16.70;58.06
53960;BME280;39866;48.638;-2.020;2023-03-22T01:08:05;100655.06;;;16.67;58.19
53960;BME280;39866;48.638;-2.020;2023-03-22T01:10:39;100658.94;;;16.79;57.94
53960;BME280;39866;48.638;-2.020;2023-03-22T01:13:06;100651.22;;;16.89;57.79
53960;BME280;39866;48.638;-2.020;2023-03-22T01:15:32;100643.19;;;16.71;57.78
53960;BME280;39866;48.638;-2.020;2023-03-22T01:17:58;100635.44;;;16.82;57.59
53960;BME280;39866;48.638;-2.020;2023-03-22T01:20:24;100633.69;;;16.81;57.70
53960;BME280;39866;48.638;-2.020;2023-03-22T01:22:50;100629.31;;;16.63;57.68
53960;BME280;39866;48.638;-2.020;2023-03-22T01:25:16;100630.38;;;16.76;58.04
53960;BME280;39866;48.638;-2.020;2023-03-22T01:27:41;100622.00;;;16.82;57.63
53960;BME280;39866;48.638;-2.020;2023-03-22T01:30:07;100623.13;;;16.78;57.74
53960;BME280;39866;48.638;-2.020;2023-03-22T01:32:34;100615.50;;;16.87;57.61
53960;BME280;39866;48.638;-2.020;2023-03-22T01:34:59;100612.97;;;16.83;57.79
53960;BME280;39866;48.638;-2.020;2023-03-22T01:37:25;100601.34;;;16.99;57.62
53960;BME280;39866;48.638;-2.020;2023-03-22T01:39:53;100606.78;;;16.97;57.58
53960;BME280;39866;48.638;-2.020;2023-03-22T01:42:21;100602.03;;;16.87;57.65
53960;BME280;39866;48.638;-2.020;2023-03-22T01:47:37;100586.75;;;16.71;57.84
53960;BME280;39866;48.638;-2.020;2023-03-22T01:50:03;100593.72;;;16.91;57.39
53960;BME280;39866;48.638;-2.020;2023-03-22T01:52:29;100586.25;;;16.80;57.56
53960;BME280;39866;48.638;-2.020;2023-03-22T01:54:55;100586.34;;;16.95;57.27
53960;BME280;39866;48.638;-2.020;2023-03-22T01:57:21;100583.72;;;16.77;57.57
53960;BME280;39866;48.638;-2.020;2023-03-22T01:59:46;100570.13;;;16.80;57.59
53960;BME280;39866;48.638;-2.020;2023-03-22T02:02:15;100565.00;;;16.92;57.65
53960;BME280;39866;48.638;-2.020;2023-03-22T02:04:46;100564.91;;;16.93;57.48
53960;BME280;39866;48.638;-2.020;2023-03-22T02:07:15;100559.00;;;16.71;57.70
53960;BME280;39866;48.638;-2.020;2023-03-22T02:09:51;100576.28;;;16.82;57.54
53960;BME280;39866;48.638;-2.020;2023-03-22T02:12:24;100566.91;;;16.58;57.91
53960;BME280;39866;48.638;-2.020;2023-03-22T02:17:54;100558.41;;;16.66;57.57
53960;BME280;39866;48.638;-2.020;2023-03-22T02:23:26;100546.94;;;16.94;57.35
53960;BME280;39866;48.638;-2.020;2023-03-22T02:26:24;100550.34;;;16.66;58.69
53960;BME280;39866;48.638;-2.020;2023-03-22T02:29:11;100544.53;;;16.73;58.71
53960;BME280;39866;48.638;-2.020;2023-03-22T02:32:19;100529.28;;;16.74;59.69
53960;BME280;39866;48.638;-2.020;2023-03-22T02:37:35;100511.06;;;16.63;60.74
53960;BME280;39866;48.638;-2.020;2023-03-22T02:42:53;100507.16;;;16.37;61.04
53960;BME280;39866;48.638;-2.020;2023-03-22T02:47:56;100531.50;;;16.34;61.46
53960;BME280;39866;48.638;-2.020;2023-03-22T02:50:44;100510.97;;;16.33;61.43
53960;BME280;39866;48.638;-2.020;2023-03-22T02:56:05;100487.47;;;16.37;61.28
53960;BME280;39866;48.638;-2.020;2023-03-22T02:58:42;100512.09;;;16.45;61.26
53960;BME280;39866;48.638;-2.020;2023-03-22T03:01:26;100498.91;;;16.56;60.90
53960;BME280;39866;48.638;-2.020;2023-03-22T03:03:55;100509.81;;;16.53;61.15
53960;BME280;39866;48.638;-2.020;2023-03-22T03:06:22;100518.53;;;16.58;61.14
53960;BME280;39866;48.638;-2.020;2023-03-22T03:08:53;100499.00;;;16.54;61.07
53960;BME280;39866;48.638;-2.020;2023-03-22T03:11:22;100500.72;;;16.55;61.40
53960;BME280;39866;48.638;-2.020;2023-03-22T03:13:49;100502.72;;;16.68;61.08
53960;BME280;39866;48.638;-2.020;2023-03-22T03:16:18;100491.28;;;16.64;61.37
53960;BME280;39866;48.638;-2.020;2023-03-22T03:19:00;100487.13;;;16.58;61.31
53960;BME280;39866;48.638;-2.020;2023-03-22T03:27:25;100474.91;;;16.53;61.62
53960;BME280;39866;48.638;-2.020;2023-03-22T03:30:02;100473.28;;;16.50;61.58
53960;BME280;39866;48.638;-2.020;2023-03-22T03:32:37;100475.59;;;16.41;61.97
53960;BME280;39866;48.638;-2.020;2023-03-22T03:35:11;100474.81;;;16.54;61.81
53960;BME280;39866;48.638;-2.020;2023-03-22T03:37:50;100467.09;;;16.48;61.29
53960;BME280;39866;48.638;-2.020;2023-03-22T03:40:21;100476.97;;;16.48;61.14
53960;BME280;39866;48.638;-2.020;2023-03-22T03:42:52;100481.81;;;16.57;61.19
53960;BME280;39866;48.638;-2.020;2023-03-22T03:45:19;100473.97;;;16.54;61.03
53960;BME280;39866;48.638;-2.020;2023-03-22T03:47:47;100484.19;;;16.63;60.58
53960;BME280;39866;48.638;-2.020;2023-03-22T03:50:19;100463.38;;;16.51;60.76
53960;BME280;39866;48.638;-2.020;2023-03-22T03:52:45;100466.94;;;16.51;60.70
53960;BME280;39866;48.638;-2.020;2023-03-22T03:55:10;100450.72;;;16.53;60.63
53960;BME280;39866;48.638;-2.020;2023-03-22T03:57:35;100469.94;;;16.61;60.45
53960;BME280;39866;48.638;-2.020;2023-03-22T04:00:01;100446.13;;;16.55;60.41
53960;BME280;39866;48.638;-2.020;2023-03-22T04:02:27;100444.81;;;16.62;59.99
53960;BME280;39866;48.638;-2.020;2023-03-22T04:04:53;100458.84;;;16.67;59.89
53960;BME280;39866;48.638;-2.020;2023-03-22T04:07:18;100453.31;;;16.70;59.96
53960;BME280;39866;48.638;-2.020;2023-03-22T04:09:43;100451.53;;;16.69;60.20
53960;BME280;39866;48.638;-2.020;2023-03-22T04:12:09;100440.03;;;16.67;59.78
53960;BME280;39866;48.638;-2.020;2023-03-22T04:14:34;100463.88;;;16.73;59.13
53960;BME280;39866;48.638;-2.020;2023-03-22T04:17:00;100451.22;;;16.75;59.38
53960;BME280;39866;48.638;-2.020;2023-03-22T04:19:26;100444.56;;;16.82;58.99
53960;BME280;39866;48.638;-2.020;2023-03-22T04:21:52;100439.44;;;16.62;59.78
53960;BME280;39866;48.638;-2.020;2023-03-22T04:24:18;100442.88;;;16.64;60.76
53960;BME280;39866;48.638;-2.020;2023-03-22T04:26:43;100453.06;;;16.59;61.64
53960;BME280;39866;48.638;-2.020;2023-03-22T04:29:09;100448.38;;;16.47;62.38
53960;BME280;39866;48.638;-2.020;2023-03-22T04:31:34;100448.06;;;16.37;63.10
53960;BME280;39866;48.638;-2.020;2023-03-22T04:34:00;100431.75;;;16.24;63.61
53960;BME280;39866;48.638;-2.020;2023-03-22T04:36:34;100442.44;;;16.10;62.96
53960;BME280;39866;48.638;-2.020;2023-03-22T04:39:09;100446.25;;;16.22;63.19
53960;BME280;39866;48.638;-2.020;2023-03-22T04:41:35;100442.34;;;16.27;63.69
53960;BME280;39866;48.638;-2.020;2023-03-22T04:44:01;100444.53;;;16.21;65.12
53960;BME280;39866;48.638;-2.020;2023-03-22T04:46:31;100457.59;;;16.11;65.44
53960;BME280;39866;48.638;-2.020;2023-03-22T04:48:57;100442.44;;;16.10;65.60
53960;BME280;39866;48.638;-2.020;2023-03-22T04:51:24;100434.63;;;16.05;65.47
53960;BME280;39866;48.638;-2.020;2023-03-22T04:53:50;100453.44;;;16.05;65.22
53960;BME280;39866;48.638;-2.020;2023-03-22T04:56:15;100456.97;;;16.06;64.99
53960;BME280;39866;48.638;-2.020;2023-03-22T04:58:42;100447.63;;;15.97;64.91
53960;BME280;39866;48.638;-2.020;2023-03-22T05:01:09;100445.09;;;15.94;64.70
53960;BME280;39866;48.638;-2.020;2023-03-22T05:03:35;100423.88;;;15.90;64.14
53960;BME280;39866;48.638;-2.020;2023-03-22T05:06:03;100439.03;;;16.06;63.84
53960;BME280;39866;48.638;-2.020;2023-03-22T05:08:30;100464.75;;;15.95;64.10
53960;BME280;39866;48.638;-2.020;2023-03-22T05:10:57;100438.00;;;15.93;64.02
53960;BME280;39866;48.638;-2.020;2023-03-22T05:13:26;100434.53;;;16.07;63.53
53960;BME280;39866;48.638;-2.020;2023-03-22T05:15:51;100447.44;;;16.16;63.47
53960;BME280;39866;48.638;-2.020;2023-03-22T05:18:18;100447.44;;;16.16;62.88
53960;BME280;39866;48.638;-2.020;2023-03-22T05:20:53;100447.00;;;16.24;63.09
53960;BME280;39866;48.638;-2.020;2023-03-22T05:23:18;100433.41;;;16.27;62.68
53960;BME280;39866;48.638;-2.020;2023-03-22T05:25:45;100444.84;;;16.30;62.83
53960;BME280;39866;48.638;-2.020;2023-03-22T05:28:12;100416.25;;;16.29;62.82
53960;BME280;39866;48.638;-2.020;2023-03-22T05:30:39;100412.34;;;16.35;62.73
53960;BME280;39866;48.638;-2.020;2023-03-22T05:33:06;100409.31;;;16.41;62.65
53960;BME280;39866;48.638;-2.020;2023-03-22T05:35:35;100400.31;;;16.26;63.03
53960;BME280;39866;48.638;-2.020;2023-03-22T05:38:02;100402.47;;;16.35;63.07
53960;BME280;39866;48.638;-2.020;2023-03-22T05:40:28;100400.75;;;16.19;63.81
53960;BME280;39866;48.638;-2.020;2023-03-22T05:42:53;100405.16;;;16.35;63.94
53960;BME280;39866;48.638;-2.020;2023-03-22T05:45:20;100398.06;;;16.34;63.85
53960;BME280;39866;48.638;-2.020;2023-03-22T05:47:46;100368.41;;;16.36;63.88
53960;BME280;39866;48.638;-2.020;2023-03-22T05:50:17;100382.97;;;16.16;64.67
53960;BME280;39866;48.638;-2.020;2023-03-22T05:52:43;100382.75;;;16.05;64.87
53960;BME280;39866;48.638;-2.020;2023-03-22T05:55:09;100377.81;;;16.13;64.18
53960;BME280;39866;48.638;-2.020;2023-03-22T05:57:36;100380.94;;;16.05;63.97
53960;BME280;39866;48.638;-2.020;2023-03-22T06:00:03;100392.28;;;16.10;65.06
53960;BME280;39866;48.638;-2.020;2023-03-22T06:02:30;100420.41;;;16.19;65.62
53960;BME280;39866;48.638;-2.020;2023-03-22T06:04:56;100434.09;;;15.99;66.36
53960;BME280;39866;48.638;-2.020;2023-03-22T06:07:21;100424.06;;;16.02;67.12
53960;BME280;39866;48.638;-2.020;2023-03-22T06:09:46;100430.47;;;15.84;67.57
53960;BME280;39866;48.638;-2.020;2023-03-22T06:12:13;100434.88;;;15.85;68.10
53960;BME280;39866;48.638;-2.020;2023-03-22T06:14:39;100426.16;;;15.97;67.87
53960;BME280;39866;48.638;-2.020;2023-03-22T06:17:04;100415.41;;;15.97;67.26
53960;BME280;39866;48.638;-2.020;2023-03-22T06:19:30;100408.66;;;16.06;67.44
53960;BME280;39866;48.638;-2.020;2023-03-22T06:21:55;100407.63;;;16.08;67.47
53960;BME280;39866;48.638;-2.020;2023-03-22T06:24:21;100404.03;;;16.08;67.39
53960;BME280;39866;48.638;-2.020;2023-03-22T06:26:46;100399.03;;;16.02;66.88
53960;BME280;39866;48.638;-2.020;2023-03-22T06:29:12;100427.97;;;15.97;67.70
53960;BME280;39866;48.638;-2.020;2023-03-22T06:31:37;100430.47;;;16.00;67.48
53960;BME280;39866;48.638;-2.020;2023-03-22T06:34:03;100430.13;;;15.90;67.48
53960;BME280;39866;48.638;-2.020;2023-03-22T06:36:29;100426.66;;;16.04;66.65
53960;BME280;39866;48.638;-2.020;2023-03-22T06:38:56;100431.25;;;16.02;66.67
53960;BME280;39866;48.638;-2.020;2023-03-22T06:41:22;100432.72;;;16.07;66.71
53960;BME280;39866;48.638;-2.020;2023-03-22T06:43:48;100421.91;;;16.09;66.60
53960;BME280;39866;48.638;-2.020;2023-03-22T06:46:13;100445.19;;;15.93;66.24
53960;BME280;39866;48.638;-2.020;2023-03-22T06:48:38;100443.38;;;15.93;66.84
53960;BME280;39866;48.638;-2.020;2023-03-22T06:51:04;100421.72;;;16.12;66.31
53960;BME280;39866;48.638;-2.020;2023-03-22T06:53:30;100412.09;;;16.08;66.34
53960;BME280;39866;48.638;-2.020;2023-03-22T06:55:55;100416.97;;;16.17;66.08
53960;BME280;39866;48.638;-2.020;2023-03-22T06:58:20;100419.44;;;16.20;66.34
53960;BME280;39866;48.638;-2.020;2023-03-22T07:00:46;100425.53;;;16.08;66.53
53960;BME280;39866;48.638;-2.020;2023-03-22T07:03:11;100426.16;;;16.13;66.52
53960;BME280;39866;48.638;-2.020;2023-03-22T07:05:36;100402.41;;;16.21;66.37
53960;BME280;39866;48.638;-2.020;2023-03-22T07:08:02;100403.97;;;15.94;66.46
53960;BME280;39866;48.638;-2.020;2023-03-22T07:10:28;100407.09;;;16.02;66.38
53960;BME280;39866;48.638;-2.020;2023-03-22T07:12:54;100407.94;;;16.18;65.96
53960;BME280;39866;48.638;-2.020;2023-03-22T07:15:19;100418.59;;;16.35;65.57
53960;BME280;39866;48.638;-2.020;2023-03-22T07:17:49;100416.25;;;16.29;65.74
53960;BME280;39866;48.638;-2.020;2023-03-22T07:20:14;100407.69;;;16.07;66.09
53960;BME280;39866;48.638;-2.020;2023-03-22T07:22:40;100399.34;;;16.27;66.05
53960;BME280;39866;48.638;-2.020;2023-03-22T07:25:05;100403.28;;;16.06;65.68
53960;BME280;39866;48.638;-2.020;2023-03-22T07:27:31;100403.72;;;16.14;66.12
53960;BME280;39866;48.638;-2.020;2023-03-22T07:29:56;100417.28;;;16.27;65.62
53960;BME280;39866;48.638;-2.020;2023-03-22T07:32:21;100391.84;;;16.18;65.89
53960;BME280;39866;48.638;-2.020;2023-03-22T07:34:47;100387.22;;;16.20;65.84
53960;BME280;39866;48.638;-2.020;2023-03-22T07:37:12;100397.53;;;16.12;66.12
53960;BME280;39866;48.638;-2.020;2023-03-22T07:39:37;100399.63;;;16.07;66.04
53960;BME280;39866;48.638;-2.020;2023-03-22T07:42:03;100400.31;;;16.10;66.05
53960;BME280;39866;48.638;-2.020;2023-03-22T07:44:28;100396.06;;;16.22;65.74
53960;BME280;39866;48.638;-2.020;2023-03-22T07:46:53;100388.19;;;16.19;65.79
53960;BME280;39866;48.638;-2.020;2023-03-22T07:49:19;100402.91;;;16.28;65.50
53960;BME280;39866;48.638;-2.020;2023-03-22T07:51:45;100384.19;;;16.42;64.72
53960;BME280;39866;48.638;-2.020;2023-03-22T07:54:10;100370.22;;;16.35;65.53
53960;BME280;39866;48.638;-2.020;2023-03-22T07:56:36;100377.41;;;16.51;64.98
53960;BME280;39866;48.638;-2.020;2023-03-22T07:59:01;100384.25;;;16.41;65.38
53960;BME280;39866;48.638;-2.020;2023-03-22T08:01:26;100377.16;;;16.40;65.14
53960;BME280;39866;48.638;-2.020;2023-03-22T08:03:52;100392.81;;;16.47;64.87
53960;BME280;39866;48.638;-2.020;2023-03-22T08:06:18;100406.16;;;16.49;64.45
53960;BME280;39866;48.638;-2.020;2023-03-22T08:08:45;100399.78;;;16.35;64.83
53960;BME280;39866;48.638;-2.020;2023-03-22T08:11:11;100394.53;;;16.48;64.84
53960;BME280;39866;48.638;-2.020;2023-03-22T08:13:37;100400.97;;;16.62;64.44
53960;BME280;39866;48.638;-2.020;2023-03-22T08:16:03;100391.75;;;16.66;64.16
53960;BME280;39866;48.638;-2.020;2023-03-22T08:18:28;100388.78;;;16.70;64.52
53960;BME280;39866;48.638;-2.020;2023-03-22T08:20:55;100397.47;;;16.59;64.46
53960;BME280;39866;48.638;-2.020;2023-03-22T08:23:23;100386.56;;;16.63;64.23
53960;BME280;39866;48.638;-2.020;2023-03-22T08:25:49;100381.63;;;16.55;64.36
53960;BME280;39866;48.638;-2.020;2023-03-22T08:28:15;100386.19;;;16.69;64.60
53960;BME280;39866;48.638;-2.020;2023-03-22T08:30:41;100380.91;;;16.67;64.60
53960;BME280;39866;48.638;-2.020;2023-03-22T08:33:07;100394.03;;;16.57;65.30
53960;BME280;39866;48.638;-2.020;2023-03-22T08:35:32;100398.03;;;16.50;65.27
53960;BME280;39866;48.638;-2.020;2023-03-22T08:37:58;100397.16;;;16.50;65.89
53960;BME280;39866;48.638;-2.020;2023-03-22T08:40:23;100404.38;;;16.49;65.52
53960;BME280;39866;48.638;-2.020;2023-03-22T08:42:49;100401.72;;;16.79;65.29
53960;BME280;39866;48.638;-2.020;2023-03-22T08:45:15;100399.31;;;16.59;65.61
53960;BME280;39866;48.638;-2.020;2023-03-22T08:47:41;100409.50;;;16.68;65.58
53960;BME280;39866;48.638;-2.020;2023-03-22T08:50:07;100399.16;;;16.92;64.84
53960;BME280;39866;48.638;-2.020;2023-03-22T08:52:33;100403.00;;;16.72;65.67
53960;BME280;39866;48.638;-2.020;2023-03-22T08:54:58;100407.94;;;16.64;65.76
53960;BME280;39866;48.638;-2.020;2023-03-22T08:57:24;100393.81;;;16.76;65.43
53960;BME280;39866;48.638;-2.020;2023-03-22T08:59:52;100397.88;;;16.83;65.67
53960;BME280;39866;48.638;-2.020;2023-03-22T09:02:17;100400.41;;;16.71;65.46
53960;BME280;39866;48.638;-2.020;2023-03-22T09:04:43;100394.00;;;16.73;65.78
53960;BME280;39866;48.638;-2.020;2023-03-22T09:07:08;100395.19;;;16.68;66.08
53960;BME280;39866;48.638;-2.020;2023-03-22T09:09:33;100396.78;;;16.56;65.91
53960;BME280;39866;48.638;-2.020;2023-03-22T09:11:59;100379.63;;;16.58;66.03
53960;BME280;39866;48.638;-2.020;2023-03-22T09:14:25;100386.53;;;16.78;65.76
53960;BME280;39866;48.638;-2.020;2023-03-22T09:16:50;100373.59;;;16.69;65.68
53960;BME280;39866;48.638;-2.020;2023-03-22T09:19:16;100396.56;;;16.91;65.60
53960;BME280;39866;48.638;-2.020;2023-03-22T09:21:41;100383.47;;;16.84;65.63
53960;BME280;39866;48.638;-2.020;2023-03-22T09:24:07;100389.25;;;16.93;65.46
53960;BME280;39866;48.638;-2.020;2023-03-22T09:26:32;100389.31;;;16.77;65.66
53960;BME280;39866;48.638;-2.020;2023-03-22T09:28:58;100383.84;;;16.78;65.89
53960;BME280;39866;48.638;-2.020;2023-03-22T09:31:23;100384.59;;;16.80;66.33
53960;BME280;39866;48.638;-2.020;2023-03-22T09:33:48;100383.06;;;16.76;66.50
53960;BME280;39866;48.638;-2.020;2023-03-22T09:36:14;100373.69;;;16.83;66.48
53960;BME280;39866;48.638;-2.020;2023-03-22T09:38:40;100404.22;;;16.82;66.72
53960;BME280;39866;48.638;-2.020;2023-03-22T09:41:19;100370.72;;;16.72;67.27
53960;BME280;39866;48.638;-2.020;2023-03-22T09:43:56;100362.78;;;16.71;67.24
53960;BME280;39866;48.638;-2.020;2023-03-22T09:46:28;100388.16;;;16.81;67.47
53960;BME280;39866;48.638;-2.020;2023-03-22T09:48:56;100367.56;;;16.96;66.98
53960;BME280;39866;48.638;-2.020;2023-03-22T09:53:53;100342.09;;;16.87;67.07
53960;BME280;39866;48.638;-2.020;2023-03-22T09:56:29;100358.88;;;16.76;67.67
53960;BME280;39866;48.638;-2.020;2023-03-22T09:59:07;100348.34;;;16.88;67.45
53960;BME280;39866;48.638;-2.020;2023-03-22T10:01:49;100349.31;;;16.87;67.09
53960;BME280;39866;48.638;-2.020;2023-03-22T10:04:50;100350.06;;;16.89;66.67
53960;BME280;39866;48.638;-2.020;2023-03-22T10:10:36;100350.06;;;16.89;66.88
53960;BME280;39866;48.638;-2.020;2023-03-22T10:13:14;100346.34;;;16.91;66.81
53960;BME280;39866;48.638;-2.020;2023-03-22T10:15:56;100337.13;;;16.95;66.69
53960;BME280;39866;48.638;-2.020;2023-03-22T10:18:34;100341.41;;;16.83;66.89
53960;BME280;39866;48.638;-2.020;2023-03-22T10:21:05;100326.56;;;17.06;66.27
53960;BME280;39866;48.638;-2.020;2023-03-22T10:23:40;100339.13;;;17.06;66.44
53960;BME280;39866;48.638;-2.020;2023-03-22T10:26:08;100317.91;;;17.16;65.85
53960;BME280;39866;48.638;-2.020;2023-03-22T10:28:40;100313.50;;;17.15;66.18
53960;BME280;39866;48.638;-2.020;2023-03-22T10:31:17;100335.59;;;17.20;65.85
53960;BME280;39866;48.638;-2.020;2023-03-22T10:33:51;100331.16;;;17.04;66.69
53960;BME280;39866;48.638;-2.020;2023-03-22T10:36:22;100327.03;;;16.99;66.80
53960;BME280;39866;48.638;-2.020;2023-03-22T10:39:26;100342.59;;;17.08;66.89
53960;BME280;39866;48.638;-2.020;2023-03-22T10:41:55;100355.66;;;17.14;66.71
53960;BME280;39866;48.638;-2.020;2023-03-22T10:44:22;100347.22;;;17.20;66.54
53960;BME280;39866;48.638;-2.020;2023-03-22T10:46:50;100369.09;;;17.14;66.46
53960;BME280;39866;48.638;-2.020;2023-03-22T10:49:26;100349.63;;;17.39;66.08
53960;BME280;39866;48.638;-2.020;2023-03-22T10:51:57;100368.53;;;17.38;65.87
53960;BME280;39866;48.638;-2.020;2023-03-22T10:54:25;100363.16;;;17.38;66.02
53960;BME280;39866;48.638;-2.020;2023-03-22T10:56:50;100357.09;;;17.34;66.03
53960;BME280;39866;48.638;-2.020;2023-03-22T11:02:19;100366.81;;;17.37;65.83
53960;BME280;39866;48.638;-2.020;2023-03-22T11:04:50;100360.00;;;17.45;65.54
53960;BME280;39866;48.638;-2.020;2023-03-22T11:07:43;100346.72;;;17.56;65.05
53960;BME280;39866;48.638;-2.020;2023-03-22T11:12:35;100337.50;;;17.61;65.32
53960;BME280;39866;48.638;-2.020;2023-03-22T11:15:02;100354.00;;;17.69;65.27
53960;BME280;39866;48.638;-2.020;2023-03-22T11:17:29;100334.34;;;17.40;65.72
53960;BME280;39866;48.638;-2.020;2023-03-22T11:20:00;100348.16;;;17.33;66.03
53960;BME280;39866;48.638;-2.020;2023-03-22T11:22:39;100334.13;;;17.43;66.30
53960;BME280;39866;48.638;-2.020;2023-03-22T11:25:12;100314.72;;;17.52;65.65
53960;BME280;39866;48.638;-2.020;2023-03-22T11:27:50;100331.13;;;17.62;66.03
53960;BME280;39866;48.638;-2.020;2023-03-22T11:30:17;100328.69;;;17.71;65.75
53960;BME280;39866;48.638;-2.020;2023-03-22T11:32:46;100340.81;;;17.93;65.05
53960;BME280;39866;48.638;-2.020;2023-03-22T11:35:16;100327.28;;;17.66;65.82
53960;BME280;39866;48.638;-2.020;2023-03-22T11:37:44;100334.19;;;17.70;65.42
53960;BME280;39866;48.638;-2.020;2023-03-22T11:40:25;100341.63;;;17.80;64.93
53960;BME280;39866;48.638;-2.020;2023-03-22T11:42:54;100342.66;;;17.92;64.97
53960;BME280;39866;48.638;-2.020;2023-03-22T11:45:28;100328.66;;;18.00;64.22
53960;BME280;39866;48.638;-2.020;2023-03-22T11:48:05;100347.38;;;17.74;64.81
53960;BME280;39866;48.638;-2.020;2023-03-22T11:50:33;100332.81;;;17.91;64.50
53960;BME280;39866;48.638;-2.020;2023-03-22T11:53:01;100342.09;;;18.14;63.84
53960;BME280;39866;48.638;-2.020;2023-03-22T11:55:28;100337.63;;;18.00;63.92
53960;BME280;39866;48.638;-2.020;2023-03-22T11:57:56;100336.59;;;17.89;64.78
53960;BME280;39866;48.638;-2.020;2023-03-22T12:00:26;100339.28;;;17.89;64.64
53960;BME280;39866;48.638;-2.020;2023-03-22T12:03:03;100333.91;;;17.89;64.60
53960;BME280;39866;48.638;-2.020;2023-03-22T12:05:36;100346.28;;;17.91;64.64
53960;BME280;39866;48.638;-2.020;2023-03-22T12:08:20;100359.28;;;17.70;64.98
53960;BME280;39866;48.638;-2.020;2023-03-22T12:10:57;100333.91;;;17.89;64.89
53960;BME280;39866;48.638;-2.020;2023-03-22T12:16:00;100341.63;;;17.80;66.20
53960;BME280;39866;48.638;-2.020;2023-03-22T12:18:38;100346.34;;;17.77;66.82
53960;BME280;39866;48.638;-2.020;2023-03-22T12:21:08;100339.88;;;17.79;66.99
53960;BME280;39866;48.638;-2.020;2023-03-22T12:23:34;100338.16;;;17.64;67.87
53960;BME280;39866;48.638;-2.020;2023-03-22T12:26:13;100340.25;;;17.73;67.43
53960;BME280;39866;48.638;-2.020;2023-03-22T12:28:58;100341.63;;;17.80;67.27
53960;BME280;39866;48.638;-2.020;2023-03-22T12:31:29;100342.16;;;17.71;66.95
53960;BME280;39866;48.638;-2.020;2023-03-22T12:33:59;100338.91;;;17.66;67.28
53960;BME280;39866;48.638;-2.020;2023-03-22T12:37:13;100330.84;;;17.66;67.46
53960;BME280;39866;48.638;-2.020;2023-03-22T12:39:24;100313.19;;;17.48;68.15
53960;BME280;39866;48.638;-2.020;2023-03-22T12:41:52;100321.53;;;17.57;67.98
53960;BME280;39866;48.638;-2.020;2023-03-22T12:44:31;100316.72;;;17.77;67.15
53960;BME280;39866;48.638;-2.020;2023-03-22T12:49:31;100314.03;;;17.77;67.22
53960;BME280;39866;48.638;-2.020;2023-03-22T12:52:11;100304.16;;;17.49;67.62
53960;BME280;39866;48.638;-2.020;2023-03-22T12:54:38;100317.19;;;17.55;67.74
53960;BME280;39866;48.638;-2.020;2023-03-22T12:57:05;100299.63;;;17.64;67.56
53960;BME280;39866;48.638;-2.020;2023-03-22T12:59:31;100296.16;;;17.62;67.77
53960;BME280;39866;48.638;-2.020;2023-03-22T13:02:22;100297.66;;;17.66;67.81
53960;BME280;39866;48.638;-2.020;2023-03-22T13:04:57;100281.47;;;17.53;67.55
53960;BME280;39866;48.638;-2.020;2023-03-22T13:09:54;100294.88;;;17.67;67.31
53960;BME280;39866;48.638;-2.020;2023-03-22T13:15:19;100286.03;;;17.65;67.51
53960;BME280;39866;48.638;-2.020;2023-03-22T13:17:44;100279.59;;;17.68;67.59
53960;BME280;39866;48.638;-2.020;2023-03-22T13:33:23;100239.78;;;17.73;66.87
53960;BME280;39866;48.638;-2.020;2023-03-22T13:38:37;100236.84;;;17.90;66.60
53960;BME280;39866;48.638;-2.020;2023-03-22T13:41:16;100230.97;;;17.98;66.68
53960;BME280;39866;48.638;-2.020;2023-03-22T13:43:49;100246.66;;;17.91;67.27
53960;BME280;39866;48.638;-2.020;2023-03-22T13:46:26;100233.66;;;17.98;67.34
53960;BME280;39866;48.638;-2.020;2023-03-22T13:48:55;100214.66;;;17.87;67.96
53960;BME280;39866;48.638;-2.020;2023-03-22T13:59:30;100217.97;;;17.77;68.61
53960;BME280;39866;48.638;-2.020;2023-03-22T14:04:50;100210.38;;;17.70;68.40